Time;durP1;ratioP1;P1;durP2;ratioP2;P2;SDS_P1;SDS_P2;PMS_P1;PMS_P2;Temp;Humidity;BMP_temperature;BMP_pressure;BME280_temperature;BME280_humidity;BME280_pressure;Samples;Min_cycle;Max_cycle;Signal;HPM_P1;HPM_P2
2022/09/26 00:01:03;;;;;;;9.68;3.47;;;;;;;;;;5077803;28;20070;-77
2022/09/26 00:03:29;;;;;;;11.82;3.58;;;;;;;;;;5068365;28;20081;-78
2022/09/26 00:05:59;;;;;;;11.13;3.55;;;;;;;;;;5068371;28;20124;-78
2022/09/26 00:08:25;;;;;;;11.48;3.55;;;;;;;;;;5072786;28;20376;-71
2022/09/26 00:10:56;;;;;;;11.25;3.40;;;;;;;;;;5074116;28;20508;-77
2022/09/26 00:13:23;;;;;;;11.85;3.47;;;;;;;;;;5074378;28;20063;-74
2022/09/26 00:15:49;;;;;;;11.00;3.72;;;;;;;;;;5089071;28;20044;-74
2022/09/26 00:18:15;;;;;;;9.73;3.33;;;;;;;;;;5068060;28;20088;-79
2022/09/26 00:20:41;;;;;;;13.38;3.97;;;;;;;;;;5068292;28;20147;-80
2022/09/26 00:23:07;;;;;;;10.73;3.83;;;;;;;;;;5069276;28;20059;-80
2022/09/26 00:25:33;;;;;;;11.77;3.95;;;;;;;;;;5066201;28;20108;-78
2022/09/26 00:27:59;;;;;;;12.38;3.72;;;;;;;;;;5068084;28;20055;-81
2022/09/26 00:30:25;;;;;;;11.73;3.55;;;;;;;;;;5068127;28;20049;-72
2022/09/26 00:32:51;;;;;;;14.38;3.97;;;;;;;;;;5068807;28;20088;-81
2022/09/26 00:35:17;;;;;;;12.02;3.83;;;;;;;;;;5067077;28;20125;-76
2022/09/26 00:37:43;;;;;;;11.35;3.67;;;;;;;;;;5084433;28;20055;-80
2022/09/26 00:40:11;;;;;;;10.45;3.63;;;;;;;;;;5085932;28;20075;-74
2022/09/26 00:42:37;;;;;;;12.07;3.80;;;;;;;;;;5068744;28;20464;-75
2022/09/26 00:45:03;;;;;;;12.68;3.72;;;;;;;;;;5087721;28;20492;-80
2022/09/26 00:47:38;;;;;;;10.15;3.58;;;;;;;;;;5071823;28;20048;-72
2022/09/26 00:50:07;;;;;;;11.43;4.00;;;;;;;;;;5083229;28;20067;-79
2022/09/26 00:52:36;;;;;;;12.00;3.95;;;;;;;;;;5067078;28;20155;-80
2022/09/26 00:55:06;;;;;;;9.68;3.50;;;;;;;;;;5067912;28;20056;-77
2022/09/26 00:57:39;;;;;;;15.35;3.63;;;;;;;;;;5066307;28;20126;-76
2022/09/26 01:00:08;;;;;;;13.90;3.55;;;;;;;;;;5079115;28;20083;-74
2022/09/26 01:02:37;;;;;;;12.82;3.67;;;;;;;;;;5072743;28;20050;-78
2022/09/26 01:05:04;;;;;;;11.82;3.60;;;;;;;;;;5087453;28;20069;-76
2022/09/26 01:07:31;;;;;;;11.50;3.42;;;;;;;;;;5079910;28;20113;-75
2022/09/26 01:09:57;;;;;;;;;;;;;;;;;;5081246;28;20052;-76
2022/09/26 01:12:23;;;;;;;9.63;3.42;;;;;;;;;;5068017;28;19929;-75
2022/09/26 01:14:53;;;;;;;9.15;3.25;;;;;;;;;;5067985;28;20136;-77
2022/09/26 01:17:21;;;;;;;12.98;3.80;;;;;;;;;;5082417;28;20072;-77
2022/09/26 01:19:59;;;;;;;10.30;3.28;;;;;;;;;;5069325;28;20122;-78
2022/09/26 01:22:28;;;;;;;12.75;3.80;;;;;;;;;;5054287;28;20052;-75
2022/09/26 01:25:06;;;;;;;11.30;3.70;;;;;;;;;;5083719;28;20076;-72
2022/09/26 01:27:36;;;;;;;12.80;3.92;;;;;;;;;;5076298;28;20119;-74
2022/09/26 01:30:08;;;;;;;14.27;3.65;;;;;;;;;;5067921;28;20383;-74
2022/09/26 01:32:49;;;;;;;9.95;3.72;;;;;;;;;;5066364;28;20129;-73
2022/09/26 01:35:20;;;;;;;10.80;3.70;;;;;;;;;;5068021;28;20484;-73
2022/09/26 01:37:58;;;;;;;12.70;4.10;;;;;;;;;;5049578;28;20127;-79
2022/09/26 01:40:33;;;;;;;14.13;4.10;;;;;;;;;;5078685;28;20131;-73
2022/09/26 01:43:08;;;;;;;12.13;3.67;;;;;;;;;;5068215;28;20060;-76
2022/09/26 01:45:54;;;;;;;12.25;4.00;;;;;;;;;;5068811;28;20048;-75
2022/09/26 01:48:24;;;;;;;12.15;4.40;;;;;;;;;;5058737;28;20052;-75
2022/09/26 01:50:50;;;;;;;13.45;4.35;;;;;;;;;;5078755;28;20043;-79
2022/09/26 01:53:29;;;;;;;14.50;4.55;;;;;;;;;;5091623;28;20384;-76
2022/09/26 01:56:07;;;;;;;13.45;4.38;;;;;;;;;;5074307;28;20056;-76
2022/09/26 01:58:36;;;;;;;11.60;4.22;;;;;;;;;;5072705;28;20120;-78
2022/09/26 02:01:07;;;;;;;11.70;4.25;;;;;;;;;;5083057;28;20131;-79
2022/09/26 02:03:36;;;;;;;13.93;4.25;;;;;;;;;;5073430;28;20437;-80
2022/09/26 02:06:04;;;;;;;11.32;4.40;;;;;;;;;;5082507;28;20185;-82
2022/09/26 02:08:35;;;;;;;13.93;4.43;;;;;;;;;;5081555;28;20143;-78
2022/09/26 02:11:05;;;;;;;12.85;4.68;;;;;;;;;;5079136;28;20039;-78
2022/09/26 02:13:34;;;;;;;14.35;5.00;;;;;;;;;;5067031;28;20175;-83
2022/09/26 02:16:05;;;;;;;12.65;4.70;;;;;;;;;;5081830;28;20363;-77
2022/09/26 02:18:34;;;;;;;14.07;4.57;;;;;;;;;;5088051;28;20067;-73
2022/09/26 02:21:02;;;;;;;17.20;5.30;;;;;;;;;;5086614;28;20071;-77
2022/09/26 02:23:28;;;;;;;11.65;5.05;;;;;;;;;;5088350;28;20119;-84
2022/09/26 02:25:54;;;;;;;15.18;5.22;;;;;;;;;;5089724;28;20067;-78
2022/09/26 02:28:21;;;;;;;15.70;5.93;;;;;;;;;;5090277;28;20063;-80
2022/09/26 02:30:49;;;;;;;16.42;5.65;;;;;;;;;;5086493;28;20055;-74
2022/09/26 02:33:15;;;;;;;16.15;6.32;;;;;;;;;;5074364;28;20408;-74
2022/09/26 02:35:53;;;;;;;;;;;;;;;;;;5089595;28;20144;-72
2022/09/26 02:38:24;;;;;;;17.85;6.60;;;;;;;;;;5090796;28;20366;-73
2022/09/26 02:40:52;;;;;;;15.65;6.45;;;;;;;;;;5067068;28;20052;-79
2022/09/26 02:43:37;;;;;;;16.95;6.80;;;;;;;;;;5078435;28;20048;-77
2022/09/26 02:46:14;;;;;;;14.55;6.50;;;;;;;;;;5077265;28;20885;-80
2022/09/26 02:48:40;;;;;;;14.35;6.32;;;;;;;;;;5052268;28;20408;-76
2022/09/26 02:51:16;;;;;;;16.65;7.07;;;;;;;;;;5052091;28;20476;-78
2022/09/26 02:53:42;;;;;;;17.30;7.57;;;;;;;;;;5082842;28;20048;-73
2022/09/26 02:56:08;;;;;;;19.33;7.25;;;;;;;;;;5069404;28;20061;-82
2022/09/26 02:58:48;;;;;;;16.10;7.20;;;;;;;;;;5071117;28;20054;-84
2022/09/26 03:01:35;;;;;;;17.17;7.10;;;;;;;;;;5076604;28;20040;-81
2022/09/26 03:04:13;;;;;;;15.50;7.53;;;;;;;;;;5083848;28;20475;-86
2022/09/26 03:06:42;;;;;;;15.05;7.30;;;;;;;;;;5088482;28;20044;-80
2022/09/26 03:09:08;;;;;;;16.60;7.80;;;;;;;;;;5088765;28;20048;-84
2022/09/26 03:11:35;;;;;;;15.25;7.20;;;;;;;;;;5060281;28;20048;-86
2022/09/26 03:14:02;;;;;;;17.02;7.10;;;;;;;;;;5069164;28;20116;-84
2022/09/26 03:16:30;;;;;;;14.27;6.75;;;;;;;;;;5069024;28;20111;-81
2022/09/26 03:19:32;;;;;;;13.50;6.57;;;;;;;;;;5089382;28;20117;-86
2022/09/26 03:21:58;;;;;;;16.33;6.95;;;;;;;;;;4954642;28;20047;-84
2022/09/26 03:24:25;;;;;;;;;;;;;;;;;;5027690;28;20051;-79
2022/09/26 03:26:51;;;;;;;16.80;6.75;;;;;;;;;;5068743;28;19920;-75
2022/09/26 03:29:18;;;;;;;;;;;;;;;;;;5056274;28;20044;-85
2022/09/26 03:31:45;;;;;;;16.58;7.75;;;;;;;;;;5072663;28;19999;-88
2022/09/26 03:34:14;;;;;;;19.90;7.50;;;;;;;;;;5069692;28;20037;-75
2022/09/26 03:36:44;;;;;;;18.80;7.90;;;;;;;;;;5072876;28;20048;-83
2022/09/26 03:39:10;;;;;;;19.05;7.82;;;;;;;;;;5082247;28;20122;-80
2022/09/26 03:41:36;;;;;;;16.30;7.90;;;;;;;;;;5074319;28;20067;-78
2022/09/26 03:44:03;;;;;;;17.55;7.93;;;;;;;;;;5070730;28;20129;-81
2022/09/26 03:46:29;;;;;;;15.93;8.02;;;;;;;;;;5056491;28;20060;-81
2022/09/26 03:48:55;;;;;;;17.05;8.20;;;;;;;;;;5068645;28;20135;-77
2022/09/26 03:51:21;;;;;;;17.45;8.18;;;;;;;;;;5069249;28;20060;-76
2022/09/26 03:53:47;;;;;;;16.25;8.45;;;;;;;;;;5069296;28;20040;-77
2022/09/26 03:56:17;;;;;;;17.90;8.27;;;;;;;;;;5073631;28;20516;-79
2022/09/26 03:58:45;;;;;;;19.15;8.25;;;;;;;;;;5089573;28;20063;-78
2022/09/26 04:01:15;;;;;;;16.83;8.68;;;;;;;;;;5087072;28;20040;-77
2022/09/26 04:03:44;;;;;;;17.05;8.50;;;;;;;;;;5086377;28;20510;-78
2022/09/26 04:06:11;;;;;;;13.85;7.88;;;;;;;;;;5085845;28;20036;-78
2022/09/26 04:08:38;;;;;;;18.05;8.98;;;;;;;;;;5089010;28;20492;-75
2022/09/26 04:11:06;;;;;;;17.88;8.80;;;;;;;;;;5088929;28;20136;-75
2022/09/26 04:13:32;;;;;;;19.65;8.82;;;;;;;;;;5081722;28;20433;-74
2022/09/26 04:15:59;;;;;;;;;;;;;;;;;;5080207;28;20119;-73
2022/09/26 04:18:26;;;;;;;18.40;8.80;;;;;;;;;;5088257;28;19920;-79
2022/09/26 04:21:04;;;;;;;18.98;9.32;;;;;;;;;;5088755;28;20058;-75
2022/09/26 04:23:32;;;;;;;17.17;9.35;;;;;;;;;;5086600;28;20044;-76
2022/09/26 04:26:05;;;;;;;20.08;9.38;;;;;;;;;;5068837;28;20109;-82
2022/09/26 04:28:32;;;;;;;20.35;9.50;;;;;;;;;;5074856;28;20106;-73
2022/09/26 04:30:58;;;;;;;18.77;9.20;;;;;;;;;;5068983;28;20223;-77
2022/09/26 04:33:25;;;;;;;20.80;9.27;;;;;;;;;;5068497;28;20521;-74
2022/09/26 04:35:51;;;;;;;15.75;9.10;;;;;;;;;;5068194;28;20124;-78
2022/09/26 04:38:20;;;;;;;19.23;9.48;;;;;;;;;;5078754;28;20579;-76
2022/09/26 04:40:46;;;;;;;20.20;9.73;;;;;;;;;;5088706;28;20052;-75
2022/09/26 04:43:12;;;;;;;18.77;9.25;;;;;;;;;;5088270;28;20397;-79
2022/09/26 04:45:44;;;;;;;16.52;9.23;;;;;;;;;;5085976;28;20044;-85
2022/09/26 04:48:10;;;;;;;18.98;9.02;;;;;;;;;;5087116;28;20116;-76
2022/09/26 04:50:36;;;;;;;18.17;9.63;;;;;;;;;;5087431;28;20047;-78
2022/09/26 04:53:05;;;;;;;19.35;9.68;;;;;;;;;;5088288;28;20090;-74
2022/09/26 04:55:32;;;;;;;17.15;9.55;;;;;;;;;;5079874;28;20046;-73
2022/09/26 04:57:58;;;;;;;18.50;10.02;;;;;;;;;;5071541;28;20063;-68
2022/09/26 05:00:24;;;;;;;17.35;10.13;;;;;;;;;;5071408;28;20047;-73
2022/09/26 05:02:50;;;;;;;20.05;9.75;;;;;;;;;;5088650;28;20196;-74
2022/09/26 05:05:16;;;;;;;18.65;9.57;;;;;;;;;;5085799;28;20178;-74
2022/09/26 05:07:43;;;;;;;20.85;10.18;;;;;;;;;;5085607;28;20113;-74
2022/09/26 05:10:10;;;;;;;19.90;10.00;;;;;;;;;;5087638;28;20400;-71
2022/09/26 05:12:38;;;;;;;;;;;;;;;;;;5088305;28;20382;-71
2022/09/26 05:15:05;;;;;;;21.23;11.70;;;;;;;;;;5079283;28;19975;-68
2022/09/26 05:17:31;;;;;;;18.58;9.93;;;;;;;;;;5068333;28;20055;-70
2022/09/26 05:19:59;;;;;;;17.15;10.40;;;;;;;;;;5084939;28;20055;-71
2022/09/26 05:22:29;;;;;;;21.58;11.30;;;;;;;;;;5086398;28;20221;-72
2022/09/26 05:27:39;;;;;;;21.80;11.35;;;;;;;;;;5053002;28;20068;-71
2022/09/26 05:30:06;;;;;;;17.92;10.77;;;;;;;;;;5081231;28;20044;-69
2022/09/26 05:32:33;;;;;;;22.33;11.95;;;;;;;;;;5088272;28;20056;-71
2022/09/26 05:34:59;;;;;;;18.67;11.15;;;;;;;;;;5090751;28;20044;-68
2022/09/26 05:37:25;;;;;;;22.25;12.07;;;;;;;;;;5085862;28;20095;-73
2022/09/26 05:42:35;;;;;;;16.65;11.32;;;;;;;;;;5071745;28;20145;-72
2022/09/26 05:45:02;;;;;;;21.75;11.80;;;;;;;;;;5069735;28;20040;-71
2022/09/26 05:47:31;;;;;;;19.60;12.10;;;;;;;;;;5067318;28;20127;-69
2022/09/26 05:49:57;;;;;;;21.88;12.15;;;;;;;;;;5067295;28;20131;-71
2022/09/26 05:52:23;;;;;;;20.40;11.48;;;;;;;;;;5048433;28;20048;-72
2022/09/26 05:54:49;;;;;;;19.88;12.05;;;;;;;;;;5068556;28;20445;-72
2022/09/26 05:57:17;;;;;;;23.15;11.57;;;;;;;;;;5066702;28;20491;-70
2022/09/26 05:59:43;;;;;;;21.58;11.93;;;;;;;;;;5059560;28;20375;-70
2022/09/26 06:02:10;;;;;;;20.05;11.88;;;;;;;;;;5055613;28;20048;-73
2022/09/26 06:04:36;;;;;;;;;;;;;;;;;;5064083;28;20420;-72
2022/09/26 06:07:02;;;;;;;20.48;10.88;;;;;;;;;;5068272;28;20012;-71
2022/09/26 06:09:28;;;;;;;17.83;10.98;;;;;;;;;;5061703;28;20049;-71
2022/09/26 06:11:55;;;;;;;20.90;11.20;;;;;;;;;;5067487;28;20044;-70
2022/09/26 06:14:24;;;;;;;20.02;10.48;;;;;;;;;;5060223;28;20342;-72
2022/09/26 06:16:50;;;;;;;20.67;10.63;;;;;;;;;;5049987;28;20113;-69
2022/09/26 06:19:16;;;;;;;20.70;11.05;;;;;;;;;;5066243;28;20044;-72
2022/09/26 06:21:43;;;;;;;17.63;10.45;;;;;;;;;;5057443;28;20056;-70
2022/09/26 06:24:09;;;;;;;19.55;10.32;;;;;;;;;;5050584;28;20467;-67
2022/09/26 06:26:36;;;;;;;20.67;11.48;;;;;;;;;;5055952;28;20053;-73
2022/09/26 06:29:03;;;;;;;19.17;10.90;;;;;;;;;;5060132;28;20056;-68
2022/09/26 06:31:29;;;;;;;18.15;10.13;;;;;;;;;;5068880;28;20092;-70
2022/09/26 06:33:55;;;;;;;;;;;;;;;;;;5065361;28;20425;-74
2022/09/26 06:36:23;;;;;;;17.23;10.00;;;;;;;;;;5068525;28;20254;-68
2022/09/26 06:38:51;;;;;;;19.08;10.30;;;;;;;;;;5066191;28;20416;-70
2022/09/26 06:41:17;;;;;;;21.00;10.27;;;;;;;;;;5076262;28;20071;-75
2022/09/26 06:43:44;;;;;;;22.33;10.02;;;;;;;;;;5068600;28;20066;-71
2022/09/26 06:46:11;;;;;;;21.33;10.90;;;;;;;;;;5083850;28;20115;-70
2022/09/26 06:48:37;;;;;;;19.77;10.75;;;;;;;;;;5087276;28;20055;-74
2022/09/26 06:51:03;;;;;;;20.70;10.70;;;;;;;;;;5068624;28;20525;-74
2022/09/26 06:53:30;;;;;;;18.42;9.93;;;;;;;;;;5087508;28;20068;-74
2022/09/26 06:55:58;;;;;;;19.90;10.98;;;;;;;;;;5053722;28;20035;-77
2022/09/26 06:58:24;;;;;;;24.67;10.43;;;;;;;;;;5086454;28;20063;-73
2022/09/26 07:00:51;;;;;;;18.38;10.02;;;;;;;;;;5077595;28;20128;-71
2022/09/26 07:03:17;;;;;;;20.48;10.27;;;;;;;;;;5083411;28;20040;-72
2022/09/26 07:05:44;;;;;;;20.15;9.93;;;;;;;;;;5072510;28;20052;-71
2022/09/26 07:08:10;;;;;;;19.70;9.57;;;;;;;;;;5086727;28;20059;-72
2022/09/26 07:10:37;;;;;;;18.73;10.48;;;;;;;;;;5087233;28;20387;-74
2022/09/26 07:13:04;;;;;;;19.65;9.93;;;;;;;;;;5081420;28;20056;-71
2022/09/26 07:15:32;;;;;;;19.38;9.88;;;;;;;;;;5084580;28;20124;-69
2022/09/26 07:18:01;;;;;;;17.50;9.55;;;;;;;;;;5088356;28;20121;-72
2022/09/26 07:20:27;;;;;;;18.73;9.40;;;;;;;;;;5088028;28;20117;-77
2022/09/26 07:22:54;;;;;;;15.60;9.10;;;;;;;;;;5051939;28;20127;-76
2022/09/26 07:25:20;;;;;;;18.00;9.63;;;;;;;;;;5084080;28;20100;-72
2022/09/26 07:27:49;;;;;;;17.58;10.15;;;;;;;;;;5089369;28;20035;-66
2022/09/26 07:30:18;;;;;;;17.65;9.15;;;;;;;;;;5089581;28;20055;-77
2022/09/26 07:32:46;;;;;;;15.57;8.32;;;;;;;;;;5089302;28;20051;-73
2022/09/26 07:35:16;;;;;;;17.85;9.65;;;;;;;;;;5068438;28;20044;-73
2022/09/26 07:37:42;;;;;;;17.13;8.70;;;;;;;;;;5076866;28;20128;-72
2022/09/26 07:40:09;;;;;;;16.35;8.10;;;;;;;;;;5084820;28;20059;-72
2022/09/26 07:42:37;;;;;;;18.25;8.80;;;;;;;;;;5084348;28;20063;-75
2022/09/26 07:45:04;;;;;;;15.45;8.38;;;;;;;;;;5069838;28;20118;-74
2022/09/26 07:50:17;;;;;;;15.88;8.10;;;;;;;;;;5089296;28;20541;-74
2022/09/26 07:52:44;;;;;;;17.63;7.68;;;;;;;;;;5068642;28;20380;-71
2022/09/26 07:55:11;;;;;;;17.75;7.80;;;;;;;;;;5069236;28;20064;-74
2022/09/26 07:57:37;;;;;;;16.23;8.35;;;;;;;;;;5068361;28;20141;-70
2022/09/26 08:00:11;;;;;;;17.23;7.35;;;;;;;;;;5068815;28;20044;-72
2022/09/26 08:02:41;;;;;;;14.52;7.60;;;;;;;;;;5067920;28;20455;-71
2022/09/26 08:05:09;;;;;;;16.23;7.70;;;;;;;;;;5069193;28;20471;-73
2022/09/26 08:07:35;;;;;;;18.65;7.88;;;;;;;;;;5068076;28;20072;-72
2022/09/26 08:10:02;;;;;;;16.45;7.10;;;;;;;;;;5068547;28;20334;-74
2022/09/26 08:12:33;;;;;;;18.35;6.78;;;;;;;;;;5068366;28;20130;-71
2022/09/26 08:15:00;;;;;;;13.10;6.30;;;;;;;;;;5086189;28;20048;-70
2022/09/26 08:17:32;;;;;;;14.05;7.10;;;;;;;;;;5068333;28;20041;-70
2022/09/26 08:20:01;;;;;;;16.48;6.85;;;;;;;;;;5068716;28;20059;-73
2022/09/26 08:22:27;;;;;;;11.95;5.90;;;;;;;;;;5067573;28;20464;-78
2022/09/26 08:24:54;;;;;;;;;;;;;;;;;;5082737;28;20135;-78
2022/09/26 08:27:21;;;;;;;13.32;6.47;;;;;;;;;;5088801;28;19927;-73
2022/09/26 08:29:51;;;;;;;12.85;6.15;;;;;;;;;;5089030;28;20048;-77
2022/09/26 08:32:18;;;;;;;16.17;6.75;;;;;;;;;;5088793;28;20095;-75
2022/09/26 08:34:44;;;;;;;17.40;6.47;;;;;;;;;;5086065;28;20067;-74
2022/09/26 08:37:10;;;;;;;14.15;6.65;;;;;;;;;;5089509;28;20089;-75
2022/09/26 08:39:38;;;;;;;15.25;6.55;;;;;;;;;;5088158;28;20177;-76
2022/09/26 08:42:04;;;;;;;15.25;6.50;;;;;;;;;;5088986;28;20055;-75
2022/09/26 08:44:33;;;;;;;13.45;6.47;;;;;;;;;;5083414;28;20043;-83
2022/09/26 08:47:04;;;;;;;13.68;6.90;;;;;;;;;;5067804;28;20040;-82
2022/09/26 08:49:37;;;;;;;15.50;6.63;;;;;;;;;;5068414;28;20171;-77
2022/09/26 08:52:07;;;;;;;16.80;6.97;;;;;;;;;;5050471;28;20048;-79
2022/09/26 08:54:39;;;;;;;13.55;6.47;;;;;;;;;;5083296;28;20064;-79
2022/09/26 08:57:26;;;;;;;13.77;6.90;;;;;;;;;;5088760;28;20107;-75
2022/09/26 08:59:53;;;;;;;;;;;;;;;;;;5072499;28;20380;-81
2022/09/26 09:02:25;;;;;;;13.57;7.07;;;;;;;;;;5068330;28;20255;-78
2022/09/26 09:05:14;;;;;;;17.20;7.78;;;;;;;;;;5067794;28;20398;-81
2022/09/26 09:07:40;;;;;;;13.82;7.28;;;;;;;;;;5057272;28;20528;-77
2022/09/26 09:10:10;;;;;;;16.70;7.63;;;;;;;;;;5071135;28;20044;-80
2022/09/26 09:13:12;;;;;;;16.00;7.20;;;;;;;;;;5071340;28;20114;-81
2022/09/26 09:15:50;;;;;;;18.27;7.53;;;;;;;;;;5030743;28;20045;-85
2022/09/26 09:18:27;;;;;;;17.90;7.50;;;;;;;;;;5072712;28;20139;-81
2022/09/26 09:21:00;;;;;;;15.15;7.55;;;;;;;;;;5071968;28;20147;-76
2022/09/26 09:23:32;;;;;;;16.13;7.63;;;;;;;;;;5073188;28;20079;-76
2022/09/26 09:26:10;;;;;;;16.13;7.05;;;;;;;;;;5072316;28;20067;-76
2022/09/26 09:28:51;;;;;;;16.88;7.25;;;;;;;;;;5079688;28;20064;-76
2022/09/26 09:31:20;;;;;;;15.82;6.70;;;;;;;;;;5087123;28;20047;-79
2022/09/26 09:33:47;;;;;;;15.18;7.45;;;;;;;;;;5086955;28;20098;-77
2022/09/26 09:36:16;;;;;;;16.42;7.65;;;;;;;;;;5089816;28;20060;-88
2022/09/26 09:38:45;;;;;;;14.52;6.95;;;;;;;;;;5086636;28;20055;-73
2022/09/26 09:41:24;;;;;;;16.70;7.00;;;;;;;;;;5068800;28;20048;-80
2022/09/26 09:43:54;;;;;;;14.35;7.40;;;;;;;;;;5070566;28;20075;-80
2022/09/26 09:46:23;;;;;;;15.55;7.13;;;;;;;;;;5090008;28;20190;-79
2022/09/26 09:48:55;;;;;;;14.77;6.57;;;;;;;;;;5081708;28;20117;-81
2022/09/26 09:51:50;;;;;;;14.88;6.78;;;;;;;;;;5096352;28;20157;-87
2022/09/26 09:54:19;;;;;;;16.20;6.78;;;;;;;;;;5064449;28;20131;-75
2022/09/26 09:56:45;;;;;;;14.38;7.45;;;;;;;;;;5071581;28;20044;-83
2022/09/26 09:59:37;;;;;;;14.95;7.13;;;;;;;;;;5091487;28;20071;-80
2022/09/26 10:02:33;;;;;;;15.77;7.25;;;;;;;;;;5080349;28;20063;-84
2022/09/26 10:05:17;;;;;;;14.68;7.65;;;;;;;;;;5025555;28;20064;-77
2022/09/26 10:07:45;;;;;;;17.00;7.53;;;;;;;;;;5086464;28;20130;-75
2022/09/26 10:10:17;;;;;;;16.17;7.90;;;;;;;;;;5101734;28;20132;-80
2022/09/26 10:12:43;;;;;;;17.23;8.25;;;;;;;;;;5093958;28;20051;-70
2022/09/26 10:15:18;;;;;;;21.88;9.15;;;;;;;;;;5084629;28;20124;-75
2022/09/26 10:17:59;;;;;;;17.08;8.57;;;;;;;;;;5073645;28;20113;-83
2022/09/26 10:20:40;;;;;;;19.88;8.93;;;;;;;;;;5078441;28;20342;-75
2022/09/26 10:23:11;;;;;;;18.38;8.95;;;;;;;;;;5086147;28;20100;-95
2022/09/26 10:25:38;;;;;;;17.63;9.30;;;;;;;;;;5102358;28;20110;-87
2022/09/26 10:28:04;;;;;;;22.85;10.45;;;;;;;;;;5091701;28;20116;-75
2022/09/26 10:30:32;;;;;;;20.95;9.95;;;;;;;;;;5095120;28;20063;-77
2022/09/26 10:33:00;;;;;;;16.88;9.68;;;;;;;;;;5104597;28;20170;-82
2022/09/26 10:35:28;;;;;;;17.98;10.75;;;;;;;;;;5096326;28;20360;-82
2022/09/26 10:38:00;;;;;;;18.25;10.07;;;;;;;;;;5102598;28;20062;-73
2022/09/26 10:40:46;;;;;;;18.02;9.98;;;;;;;;;;5094394;28;20044;-82
2022/09/26 10:43:36;;;;;;;19.08;10.57;;;;;;;;;;5090305;28;20441;-86
2022/09/26 10:46:16;;;;;;;20.15;11.50;;;;;;;;;;5075744;28;20117;-92
2022/09/26 10:48:52;;;;;;;22.08;11.00;;;;;;;;;;5077379;28;20059;-76
2022/09/26 10:51:28;;;;;;;19.52;10.65;;;;;;;;;;5102189;28;20083;-86
2022/09/26 10:54:12;;;;;;;19.63;11.00;;;;;;;;;;5103826;28;20051;-80
2022/09/26 10:56:42;;;;;;;18.90;11.20;;;;;;;;;;5093521;28;20055;-86
2022/09/26 10:59:09;;;;;;;20.80;11.65;;;;;;;;;;5096990;28;20134;-80
2022/09/26 11:01:41;;;;;;;21.67;12.38;;;;;;;;;;5080587;28;20051;-82
2022/09/26 11:07:20;;;;;;;20.67;11.90;;;;;;;;;;5070507;28;20464;-70
2022/09/26 11:09:46;;;;;;;21.63;12.85;;;;;;;;;;5061466;28;20480;-72
2022/09/26 11:12:34;;;;;;;21.25;13.13;;;;;;;;;;5085019;28;20101;-73
2022/09/26 11:15:11;;;;;;;21.27;12.60;;;;;;;;;;5060520;28;20049;-73
2022/09/26 11:17:48;;;;;;;19.23;11.88;;;;;;;;;;5081014;28;20036;-74
2022/09/26 11:20:31;;;;;;;21.52;13.20;;;;;;;;;;5081227;28;20393;-73
2022/09/26 11:23:03;;;;;;;22.05;13.18;;;;;;;;;;5068410;28;20490;-70
2022/09/26 11:25:38;;;;;;;20.52;12.15;;;;;;;;;;5089779;28;20123;-75
2022/09/26 11:28:14;;;;;;;20.67;12.40;;;;;;;;;;5089202;28;20155;-76
2022/09/26 11:30:46;;;;;;;20.30;12.48;;;;;;;;;;5068174;28;20171;-73
2022/09/26 11:33:18;;;;;;;20.30;11.98;;;;;;;;;;5088910;28;20059;-72
2022/09/26 11:35:44;;;;;;;19.02;11.75;;;;;;;;;;5088517;28;20343;-73
2022/09/26 11:38:13;;;;;;;19.75;11.70;;;;;;;;;;5088477;28;20441;-73
2022/09/26 11:40:58;;;;;;;17.80;11.07;;;;;;;;;;5069984;28;20058;-73
2022/09/26 11:43:45;;;;;;;23.50;12.70;;;;;;;;;;5086508;28;20455;-71
2022/09/26 11:46:30;;;;;;;16.45;11.27;;;;;;;;;;5087979;28;20052;-74
2022/09/26 11:49:12;;;;;;;21.65;12.57;;;;;;;;;;5087776;28;20043;-75
2022/09/26 11:51:50;;;;;;;18.27;11.00;;;;;;;;;;5088675;28;20403;-75
2022/09/26 11:54:31;;;;;;;20.08;11.48;;;;;;;;;;5067986;28;20121;-66
2022/09/26 11:57:00;;;;;;;16.45;11.70;;;;;;;;;;5087072;28;20056;-69
2022/09/26 11:59:40;;;;;;;19.15;11.88;;;;;;;;;;5087220;28;20070;-68
2022/09/26 12:02:09;;;;;;;20.05;11.32;;;;;;;;;;5073944;28;20469;-69
2022/09/26 12:04:38;;;;;;;16.85;10.75;;;;;;;;;;5067964;28;20135;-69
2022/09/26 12:07:20;;;;;;;17.95;10.88;;;;;;;;;;5067307;28;20441;-72
2022/09/26 12:09:57;;;;;;;16.75;11.70;;;;;;;;;;5068035;28;20044;-71
2022/09/26 12:12:31;;;;;;;16.83;11.20;;;;;;;;;;5068266;28;20404;-80
2022/09/26 12:15:01;;;;;;;16.30;11.48;;;;;;;;;;5083595;28;20353;-75
2022/09/26 12:17:36;;;;;;;15.70;10.73;;;;;;;;;;5088215;28;20075;-70
2022/09/26 12:20:12;;;;;;;16.50;10.93;;;;;;;;;;5087916;28;20086;-70
2022/09/26 12:22:57;;;;;;;16.65;10.30;;;;;;;;;;5088460;28;20061;-67
2022/09/26 12:25:44;;;;;;;16.38;9.50;;;;;;;;;;5070714;28;20110;-69
2022/09/26 12:28:48;;;;;;;14.68;9.13;;;;;;;;;;5067103;28;20059;-67
2022/09/26 12:31:16;;;;;;;17.13;10.05;;;;;;;;;;4947207;29;20054;-71
2022/09/26 12:33:43;;;;;;;14.80;9.50;;;;;;;;;;4947128;28;20055;-68
2022/09/26 12:36:17;;;;;;;13.85;9.20;;;;;;;;;;5023907;28;20128;-69
2022/09/26 12:38:56;;;;;;;16.00;10.20;;;;;;;;;;5079711;28;20060;-74
2022/09/26 12:41:32;;;;;;;16.05;10.23;;;;;;;;;;5067587;28;20211;-69
2022/09/26 12:44:04;;;;;;;16.05;10.43;;;;;;;;;;5064921;28;20097;-68
2022/09/26 12:46:30;;;;;;;14.48;9.88;;;;;;;;;;5067576;28;20103;-75
2022/09/26 12:49:14;;;;;;;15.38;9.25;;;;;;;;;;5066936;28;20085;-72
2022/09/26 12:51:43;;;;;;;14.80;10.57;;;;;;;;;;5067725;28;20052;-70
2022/09/26 12:54:28;;;;;;;16.90;10.43;;;;;;;;;;5075802;28;20044;-72
2022/09/26 12:57:03;;;;;;;15.27;9.90;;;;;;;;;;5082401;28;20044;-73
2022/09/26 12:59:44;;;;;;;15.77;10.30;;;;;;;;;;5088010;28;20108;-77
2022/09/26 13:02:31;;;;;;;15.90;10.82;;;;;;;;;;5080838;28;21260;-79
2022/09/26 13:05:17;;;;;;;14.43;9.87;;;;;;;;;;5079962;28;20116;-73
2022/09/26 13:08:18;;;;;;;15.07;9.73;;;;;;;;;;5084055;28;20048;-73
2022/09/26 13:11:09;;;;;;;14.75;9.68;;;;;;;;;;5023836;28;20052;-75
2022/09/26 13:13:53;;;;;;;14.73;9.65;;;;;;;;;;5078463;28;20482;-75
2022/09/26 13:16:45;;;;;;;13.20;9.15;;;;;;;;;;5085171;28;20909;-85
2022/09/26 13:19:22;;;;;;;13.45;8.77;;;;;;;;;;5078542;28;20150;-77
2022/09/26 13:21:54;;;;;;;14.10;8.32;;;;;;;;;;5092856;28;20067;-75
2022/09/26 13:24:25;;;;;;;13.43;8.07;;;;;;;;;;5094498;28;20114;-76
2022/09/26 13:26:56;;;;;;;16.90;8.32;;;;;;;;;;5093732;28;20089;-75
2022/09/26 13:29:26;;;;;;;13.77;7.60;;;;;;;;;;5093252;28;20048;-74
2022/09/26 13:32:01;;;;;;;12.68;7.50;;;;;;;;;;5085874;28;20047;-73
2022/09/26 13:34:36;;;;;;;15.00;7.28;;;;;;;;;;5063507;28;20135;-75
2022/09/26 13:37:05;;;;;;;12.88;7.40;;;;;;;;;;5081006;28;20039;-75
2022/09/26 13:39:52;;;;;;;11.80;7.35;;;;;;;;;;5102387;28;20103;-86
2022/09/26 13:42:19;;;;;;;13.13;7.95;;;;;;;;;;5081709;28;20337;-76
2022/09/26 13:45:00;;;;;;;11.75;7.30;;;;;;;;;;5087333;28;20112;-74
2022/09/26 13:47:35;;;;;;;12.55;7.22;;;;;;;;;;5081659;28;20060;-73
2022/09/26 13:50:22;;;;;;;12.13;7.10;;;;;;;;;;5102829;28;20044;-83
2022/09/26 13:52:58;;;;;;;12.48;6.90;;;;;;;;;;5073842;28;20053;-80
2022/09/26 13:55:25;;;;;;;12.00;7.05;;;;;;;;;;5096069;28;20402;-82
2022/09/26 13:58:04;;;;;;;12.93;7.50;;;;;;;;;;5088528;28;20045;-75
2022/09/26 14:00:30;;;;;;;14.88;7.82;;;;;;;;;;5062129;28;20264;-85
2022/09/26 14:03:16;;;;;;;13.23;7.45;;;;;;;;;;5071029;28;20088;-75
2022/09/26 14:05:46;;;;;;;11.23;7.25;;;;;;;;;;5072889;28;20469;-82
2022/09/26 14:11:18;;;;;;;17.10;8.50;;;;;;;;;;5081317;28;20055;-76
2022/09/26 14:13:45;;;;;;;14.80;7.60;;;;;;;;;;5110543;28;20048;-88
2022/09/26 14:16:37;;;;;;;13.95;8.00;;;;;;;;;;5088176;28;20048;-82
2022/09/26 14:19:06;;;;;;;14.77;7.43;;;;;;;;;;5084996;28;20131;-77
2022/09/26 14:21:37;;;;;;;11.93;6.80;;;;;;;;;;5075779;28;20130;-82
2022/09/26 14:24:18;;;;;;;12.98;6.93;;;;;;;;;;5073544;28;20051;-83
2022/09/26 14:26:44;;;;;;;11.75;6.53;;;;;;;;;;5072926;28;20048;-80
2022/09/26 14:29:32;;;;;;;12.32;5.90;;;;;;;;;;5070823;28;20048;-71
2022/09/26 14:32:03;;;;;;;10.35;5.93;;;;;;;;;;5027379;28;20048;-74
2022/09/26 14:34:36;;;;;;;10.70;5.82;;;;;;;;;;5076089;28;20138;-81
2022/09/26 14:37:04;;;;;;;12.68;5.65;;;;;;;;;;5070674;28;20040;-79
2022/09/26 14:39:32;;;;;;;10.93;5.00;;;;;;;;;;5051113;28;20079;-82
2022/09/26 14:42:06;;;;;;;14.63;5.80;;;;;;;;;;5075626;28;20395;-84
2022/09/26 14:44:33;;;;;;;9.10;5.10;;;;;;;;;;5079402;28;20618;-85
2022/09/26 14:47:03;;;;;;;9.38;4.88;;;;;;;;;;5059990;28;20052;-86
2022/09/26 14:49:30;;;;;;;10.88;5.10;;;;;;;;;;5089657;28;20079;-81
2022/09/26 14:52:02;;;;;;;13.07;5.53;;;;;;;;;;5080183;28;20078;-82
2022/09/26 14:54:34;;;;;;;12.48;5.55;;;;;;;;;;5067822;28;20044;-81
2022/09/26 14:57:03;;;;;;;10.95;5.15;;;;;;;;;;5070493;28;20196;-82
2022/09/26 14:59:37;;;;;;;13.10;5.88;;;;;;;;;;5072577;28;20044;-91
2022/09/26 15:02:24;;;;;;;13.98;5.90;;;;;;;;;;5066788;28;20067;-78
2022/09/26 15:04:50;;;;;;;;;;;;;;;;;;5073943;28;20406;-84
2022/09/26 15:07:20;;;;;;;11.30;5.82;;;;;;;;;;5067795;28;19920;-77
2022/09/26 15:09:49;;;;;;;12.32;6.18;;;;;;;;;;5069010;28;20044;-84